createdAt,value
2023-04-16T00:00:25.015Z,175.87
2023-04-16T00:01:24.938Z,176.71
2023-04-16T00:02:25.064Z,177.22
2023-04-16T00:03:25.247Z,178.48
2023-04-16T00:04:25.282Z,175.20
2023-04-16T00:05:25.186Z,175.40
2023-04-16T00:06:25.106Z,180.30
2023-04-16T00:07:25.196Z,176.62
2023-04-16T00:08:25.151Z,175.70
2023-04-16T00:09:25.189Z,175.97
2023-04-16T00:10:25.546Z,174.93
2023-04-16T00:11:25.267Z,177.06
2023-04-16T00:12:25.310Z,174.25
2023-04-16T00:13:25.325Z,175.05
2023-04-16T00:14:25.361Z,176.78
2023-04-16T00:15:25.425Z,174.47
2023-04-16T00:16:25.421Z,174.66
2023-04-16T00:17:25.475Z,175.75
2023-04-16T00:18:25.478Z,176.79
2023-04-16T00:19:25.588Z,176.19
2023-04-16T00:20:25.625Z,175.22
2023-04-16T00:21:25.614Z,176.63
2023-04-16T00:22:25.658Z,176.77
2023-04-16T00:23:25.718Z,176.13
2023-04-16T00:24:25.707Z,174.16
2023-04-16T00:25:25.751Z,175.95
2023-04-16T00:26:25.991Z,176.47
2023-04-16T00:27:25.796Z,174.62
2023-04-16T00:28:25.820Z,176.40
2023-04-16T00:29:25.867Z,173.35
2023-04-16T00:30:25.920Z,174.12
2023-04-16T00:31:25.990Z,174.90
2023-04-16T00:32:26.037Z,172.69
2023-04-16T00:33:26.008Z,175.43
2023-04-16T00:34:26.078Z,172.24
2023-04-16T00:35:26.071Z,174.58
2023-04-16T00:36:26.129Z,173.02
2023-04-16T00:37:26.133Z,176.30
2023-04-16T00:38:26.181Z,173.46
2023-04-16T00:39:26.232Z,172.28
2023-04-16T00:40:26.235Z,173.14
2023-04-16T00:41:26.304Z,171.60
2023-04-16T00:42:26.350Z,175.51
2023-04-16T00:43:26.351Z,175.57
2023-04-16T00:44:26.385Z,173.99
2023-04-16T00:45:26.452Z,175.23
2023-04-16T00:46:26.449Z,175.29
2023-04-16T00:47:26.474Z,171.87
2023-04-16T00:48:26.448Z,173.73
2023-04-16T00:49:26.470Z,172.24
2023-04-16T00:50:26.507Z,171.26
2023-04-16T00:51:26.539Z,173.79
2023-04-16T00:52:26.526Z,171.52
2023-04-16T00:53:26.540Z,174.88
2023-04-16T00:54:27.578Z,172.06
2023-04-16T00:55:26.609Z,172.91
2023-04-16T00:56:26.634Z,169.07
2023-04-16T00:57:26.680Z,173.63
2023-04-16T00:58:27.510Z,170.87
2023-04-16T00:59:26.705Z,173.54
2023-04-16T01:00:26.726Z,172.35
2023-04-16T01:01:26.804Z,171.84
2023-04-16T01:02:26.885Z,171.49
2023-04-16T01:03:27.047Z,171.71
2023-04-16T01:04:26.908Z,169.90
2023-04-16T01:05:26.985Z,171.88
2023-04-16T01:06:26.911Z,174.20
2023-04-16T01:07:26.921Z,173.69
2023-04-16T01:08:26.965Z,169.95
2023-04-16T01:09:26.964Z,169.85
2023-04-16T01:10:27.010Z,171.60
2023-04-16T01:11:27.024Z,169.93
2023-04-16T01:12:27.040Z,169.59
2023-04-16T01:13:27.025Z,168.19
2023-04-16T01:14:27.071Z,169.62
2023-04-16T01:15:27.120Z,171.42
2023-04-16T01:16:27.182Z,171.67
2023-04-16T01:17:27.157Z,168.81
2023-04-16T01:18:27.163Z,168.76
2023-04-16T01:19:27.170Z,174.03
2023-04-16T01:20:27.216Z,170.08
2023-04-16T01:21:27.213Z,170.78
2023-04-16T01:22:27.274Z,170.70
2023-04-16T01:23:27.295Z,170.52
2023-04-16T01:24:27.316Z,167.88
2023-04-16T01:25:27.389Z,166.95
2023-04-16T01:26:27.353Z,168.70
2023-04-16T01:27:27.398Z,168.72
2023-04-16T01:28:27.451Z,172.13
2023-04-16T01:29:27.474Z,170.74
2023-04-16T01:30:27.449Z,167.76
2023-04-16T01:31:27.560Z,168.99
2023-04-16T01:32:27.554Z,170.28
2023-04-16T01:33:27.547Z,170.32
2023-04-16T01:34:27.542Z,168.68
2023-04-16T01:35:27.593Z,165.98
2023-04-16T01:36:27.598Z,168.77
2023-04-16T01:37:27.664Z,168.75
2023-04-16T01:38:27.638Z,169.26
2023-04-16T01:39:27.725Z,168.57
2023-04-16T01:40:27.682Z,167.86
2023-04-16T01:41:27.731Z,168.63
2023-04-16T01:42:27.770Z,171.45
2023-04-16T01:43:27.787Z,166.92
2023-04-16T01:44:27.813Z,169.05
2023-04-16T01:45:27.820Z,169.17
2023-04-16T01:46:27.912Z,167.10
2023-04-16T01:47:27.930Z,168.10
2023-04-16T01:48:28.025Z,169.59
2023-04-16T01:49:27.950Z,170.54
2023-04-16T01:50:28.006Z,166.69
2023-04-16T01:51:28.110Z,168.93
2023-04-16T01:52:28.070Z,167.60
2023-04-16T01:53:28.071Z,169.29
2023-04-16T01:54:28.085Z,167.57
2023-04-16T01:55:28.081Z,167.25
2023-04-16T01:56:28.206Z,167.40
2023-04-16T01:57:28.177Z,169.69
2023-04-16T01:58:28.189Z,170.14
2023-04-16T01:59:28.189Z,167.13
2023-04-16T02:00:28.226Z,167.31
2023-04-16T02:01:28.312Z,166.90
2023-04-16T02:02:28.537Z,167.76
2023-04-16T02:03:28.792Z,167.65
2023-04-16T02:04:28.359Z,165.90
2023-04-16T02:05:28.362Z,166.19
2023-04-16T02:06:28.428Z,165.07
2023-04-16T02:07:28.428Z,164.98
2023-04-16T02:08:28.484Z,168.06
2023-04-16T02:09:28.480Z,167.01
2023-04-16T02:10:28.517Z,167.69
2023-04-16T02:11:28.511Z,168.61
2023-04-16T02:12:28.539Z,168.99
2023-04-16T02:13:28.606Z,166.40
2023-04-16T02:14:28.613Z,167.49
2023-04-16T02:15:28.633Z,165.02
2023-04-16T02:16:28.692Z,166.74
2023-04-16T02:17:28.714Z,163.92
2023-04-16T02:18:28.736Z,166.20
2023-04-16T02:19:28.679Z,164.85
2023-04-16T02:20:28.736Z,163.86
2023-04-16T02:21:28.775Z,167.15
2023-04-16T02:22:28.775Z,164.40
2023-04-16T02:23:28.788Z,165.46
2023-04-16T02:24:28.856Z,164.69
2023-04-16T02:25:28.881Z,164.50
2023-04-16T02:26:28.917Z,164.23
2023-04-16T02:27:28.971Z,165.27
2023-04-16T02:28:28.956Z,164.83
2023-04-16T02:29:28.986Z,166.23
2023-04-16T02:30:28.960Z,162.90
2023-04-16T02:31:29.058Z,164.11
2023-04-16T02:32:29.022Z,164.47
2023-04-16T02:33:29.052Z,164.29
2023-04-16T02:34:29.088Z,165.32
2023-04-16T02:35:29.076Z,164.08
2023-04-16T02:36:29.153Z,165.87
2023-04-16T02:37:29.164Z,166.02
2023-04-16T02:38:29.169Z,165.05
2023-04-16T02:39:29.217Z,162.92
2023-04-16T02:40:29.195Z,162.46
2023-04-16T02:41:29.211Z,163.00
2023-04-16T02:42:29.244Z,163.04
2023-04-16T02:43:29.255Z,162.89
2023-04-16T02:44:29.320Z,162.03
2023-04-16T02:45:29.338Z,163.78
2023-04-16T02:46:29.422Z,162.63
2023-04-16T02:47:29.450Z,163.70
2023-04-16T02:48:29.427Z,165.20
2023-04-16T02:49:29.444Z,163.26
2023-04-16T02:50:29.491Z,162.02
2023-04-16T02:51:29.482Z,161.37
2023-04-16T02:52:29.518Z,162.76
2023-04-16T02:53:29.533Z,160.62
2023-04-16T02:54:29.592Z,162.67
2023-04-16T02:55:29.604Z,162.74
2023-04-16T02:56:29.618Z,163.95
2023-04-16T02:57:29.660Z,161.56
2023-04-16T02:58:29.676Z,161.81
2023-04-16T02:59:29.724Z,161.85
2023-04-16T03:00:29.734Z,160.50
2023-04-16T03:01:29.769Z,163.73
2023-04-16T03:02:29.864Z,162.54
2023-04-16T03:03:29.836Z,164.39
2023-04-16T03:04:29.911Z,164.17
2023-04-16T03:05:29.843Z,160.86
2023-04-16T03:06:29.866Z,164.83
2023-04-16T03:07:29.882Z,162.04
2023-04-16T03:08:29.945Z,160.33
2023-04-16T03:09:29.947Z,160.15
2023-04-16T03:10:30.004Z,160.27
2023-04-16T03:11:30.065Z,159.30
2023-04-16T03:12:29.996Z,160.56
2023-04-16T03:13:30.037Z,159.20
2023-04-16T03:14:30.024Z,162.87
2023-04-16T03:15:30.106Z,162.31
2023-04-16T03:16:30.100Z,159.25
2023-04-16T03:17:30.205Z,160.94
2023-04-16T03:18:30.153Z,160.41
2023-04-16T03:19:30.172Z,162.07
2023-04-16T03:20:30.208Z,160.72
2023-04-16T03:21:30.246Z,161.60
2023-04-16T03:22:30.370Z,162.71
2023-04-16T03:23:30.309Z,163.00
2023-04-16T03:24:30.334Z,160.80
2023-04-16T03:25:30.352Z,158.09
2023-04-16T03:26:30.381Z,160.90
2023-04-16T03:27:30.386Z,163.47
2023-04-16T03:28:30.459Z,160.28
2023-04-16T03:29:30.449Z,162.10
2023-04-16T03:30:30.461Z,159.16
2023-04-16T03:31:30.525Z,159.46
2023-04-16T03:32:30.616Z,158.83
2023-04-16T03:33:30.576Z,159.69
2023-04-16T03:34:30.558Z,159.63
2023-04-16T03:35:30.614Z,159.71
2023-04-16T03:36:30.646Z,161.03
2023-04-16T03:37:30.647Z,157.93
2023-04-16T03:38:30.693Z,158.80
2023-04-16T03:39:30.704Z,160.62
2023-04-16T03:40:30.744Z,159.45
2023-04-16T03:41:30.789Z,158.84
2023-04-16T03:42:30.790Z,158.78
2023-04-16T03:43:30.852Z,160.92
2023-04-16T03:44:30.832Z,160.21
2023-04-16T03:45:30.883Z,159.78
2023-04-16T03:46:31.003Z,159.25
2023-04-16T03:47:31.028Z,159.72
2023-04-16T03:48:30.968Z,156.43
2023-04-16T03:49:31.011Z,158.70
2023-04-16T03:50:31.099Z,157.35
2023-04-16T03:51:31.061Z,158.52
2023-04-16T03:52:31.137Z,157.87
2023-04-16T03:53:31.136Z,157.70
2023-04-16T03:54:31.127Z,160.56
2023-04-16T03:55:31.199Z,156.75
2023-04-16T03:56:31.195Z,158.66
2023-04-16T03:57:31.207Z,160.47
2023-04-16T03:58:31.275Z,154.88
2023-04-16T03:59:31.260Z,157.30
2023-04-16T04:00:31.678Z,160.02
2023-04-16T04:01:31.312Z,159.73
2023-04-16T04:02:31.608Z,160.22
2023-04-16T04:03:31.503Z,158.31
2023-04-16T04:04:31.577Z,156.68
2023-04-16T04:05:31.456Z,159.35
2023-04-16T04:06:31.447Z,158.38
2023-04-16T04:07:31.469Z,156.24
2023-04-16T04:08:31.536Z,156.18
2023-04-16T04:09:31.597Z,156.06
2023-04-16T04:10:31.588Z,156.95
2023-04-16T04:11:31.615Z,160.61
2023-04-16T04:12:31.607Z,158.20
2023-04-16T04:13:31.690Z,155.60
2023-04-16T04:14:31.657Z,155.24
2023-04-16T04:15:31.693Z,158.21
2023-04-16T04:16:31.764Z,158.06
2023-04-16T04:17:31.757Z,156.38
2023-04-16T04:18:31.759Z,156.47
2023-04-16T04:19:31.825Z,155.97
2023-04-16T04:20:31.838Z,155.42
2023-04-16T04:21:31.779Z,155.19
2023-04-16T04:22:31.875Z,158.87
2023-04-16T04:23:31.843Z,158.20
2023-04-16T04:24:31.890Z,156.10
2023-04-16T04:25:32.002Z,154.65
2023-04-16T04:26:32.058Z,156.94
2023-04-16T04:27:31.977Z,155.60
2023-04-16T04:28:32.051Z,157.83
2023-04-16T04:29:32.094Z,157.45
2023-04-16T04:30:32.116Z,157.06
2023-04-16T04:31:32.170Z,153.03
2023-04-16T04:32:32.232Z,157.37
2023-04-16T04:33:32.162Z,155.48
2023-04-16T04:34:32.156Z,155.56
2023-04-16T04:35:32.598Z,153.93
2023-04-16T04:36:32.247Z,155.54
2023-04-16T04:37:32.273Z,154.97
2023-04-16T04:38:32.356Z,156.54
2023-04-16T04:39:32.307Z,153.96
2023-04-16T04:40:32.328Z,152.38
2023-04-16T04:41:32.335Z,154.45
2023-04-16T04:42:32.450Z,154.08
2023-04-16T04:43:32.444Z,154.87
2023-04-16T04:44:32.552Z,153.84
2023-04-16T04:45:32.581Z,156.49
2023-04-16T04:46:32.528Z,152.59
2023-04-16T04:47:32.594Z,153.23
2023-04-16T04:48:32.571Z,155.54
2023-04-16T04:49:32.655Z,154.85
2023-04-16T04:50:32.643Z,153.06
2023-04-16T04:51:32.677Z,153.45
2023-04-16T04:52:32.731Z,157.63
2023-04-16T04:53:32.788Z,154.75
2023-04-16T04:54:32.745Z,153.70
2023-04-16T04:55:32.778Z,153.05
2023-04-16T04:56:32.848Z,153.25
2023-04-16T04:57:32.865Z,152.55
2023-04-16T04:58:32.925Z,152.89
2023-04-16T04:59:33.138Z,153.69
2023-04-16T05:00:32.917Z,155.54
2023-04-16T05:01:33.093Z,156.50
2023-04-16T05:02:33.082Z,155.15
2023-04-16T05:03:33.101Z,151.98
2023-04-16T05:04:33.116Z,154.44
2023-04-16T05:05:33.093Z,154.30
2023-04-16T05:06:33.110Z,155.43
2023-04-16T05:07:33.189Z,152.20
2023-04-16T05:08:33.173Z,155.24
2023-04-16T05:09:33.220Z,152.87
2023-04-16T05:10:33.209Z,153.96
2023-04-16T05:11:33.267Z,155.68
2023-04-16T05:12:33.257Z,153.00
2023-04-16T05:13:33.345Z,152.05
2023-04-16T05:14:33.347Z,154.80
2023-04-16T05:15:33.347Z,154.33
2023-04-16T05:16:33.415Z,152.69
2023-04-16T05:17:33.473Z,151.75
2023-04-16T05:18:33.502Z,151.82
2023-04-16T05:19:33.493Z,150.86
2023-04-16T05:20:33.510Z,153.69
2023-04-16T05:21:33.522Z,150.77
2023-04-16T05:22:33.535Z,151.99
2023-04-16T05:23:33.601Z,152.05
2023-04-16T05:24:33.623Z,150.10
2023-04-16T05:25:33.636Z,150.44
2023-04-16T05:26:33.679Z,151.10
2023-04-16T05:27:33.682Z,152.97
2023-04-16T05:28:35.636Z,150.91
2023-04-16T05:29:33.747Z,148.52
2023-04-16T05:30:33.769Z,153.71
2023-04-16T05:31:33.809Z,151.87
2023-04-16T05:32:33.895Z,150.74
2023-04-16T05:33:33.882Z,151.99
2023-04-16T05:34:33.897Z,151.85
2023-04-16T05:35:33.936Z,153.59
2023-04-16T05:36:33.935Z,151.37
2023-04-16T05:37:34.007Z,150.28
2023-04-16T05:38:34.006Z,151.94
2023-04-16T05:39:34.035Z,148.60
2023-04-16T05:40:34.072Z,149.84
2023-04-16T05:41:34.069Z,150.30
2023-04-16T05:42:34.154Z,150.72
2023-04-16T05:43:34.149Z,150.76
2023-04-16T05:44:34.212Z,153.01
2023-04-16T05:45:34.201Z,149.66
2023-04-16T05:46:34.340Z,149.66
2023-04-16T05:47:34.331Z,148.73
2023-04-16T05:48:34.289Z,150.00
2023-04-16T05:49:34.339Z,150.39
2023-04-16T05:50:34.348Z,152.30
2023-04-16T05:51:34.339Z,151.49
2023-04-16T05:52:34.624Z,150.93
2023-04-16T05:53:34.421Z,151.13
2023-04-16T05:54:34.429Z,151.97
2023-04-16T05:55:34.445Z,148.48
2023-04-16T05:56:34.546Z,151.59
2023-04-16T05:57:34.496Z,149.70
2023-04-16T05:58:34.553Z,147.54
2023-04-16T05:59:34.574Z,150.30
2023-04-16T06:00:34.615Z,149.17
2023-04-16T06:01:34.628Z,149.91
2023-04-16T06:02:34.756Z,152.59
2023-04-16T06:03:34.743Z,153.21
2023-04-16T06:04:34.648Z,146.75
2023-04-16T06:05:34.766Z,149.86
2023-04-16T06:06:34.815Z,148.59
2023-04-16T06:07:34.825Z,147.73
2023-04-16T06:08:34.844Z,149.96
2023-04-16T06:09:34.844Z,149.21
2023-04-16T06:10:34.866Z,149.45
2023-04-16T06:11:36.443Z,151.18
2023-04-16T06:12:34.964Z,147.77
2023-04-16T06:13:34.968Z,150.74
2023-04-16T06:14:34.992Z,150.60
2023-04-16T06:15:34.981Z,148.53
2023-04-16T06:16:35.017Z,148.40
2023-04-16T06:17:35.113Z,150.51
2023-04-16T06:18:35.114Z,146.16
2023-04-16T06:19:35.109Z,153.20
2023-04-16T06:20:35.134Z,148.21
2023-04-16T06:21:35.166Z,150.95
2023-04-16T06:22:35.165Z,147.56
2023-04-16T06:23:35.244Z,147.83
2023-04-16T06:24:35.252Z,150.01
2023-04-16T06:25:35.261Z,147.10
2023-04-16T06:26:35.276Z,152.56
2023-04-16T06:27:35.456Z,151.81
2023-04-16T06:28:35.373Z,152.56
2023-04-16T06:29:41.239Z,150.72
2023-04-16T06:30:36.417Z,150.84
2023-04-16T06:31:35.500Z,150.31
2023-04-16T06:32:35.445Z,150.95
2023-04-16T06:33:35.354Z,148.13
2023-04-16T06:34:35.337Z,148.71
2023-04-16T06:35:36.152Z,147.88
2023-04-16T06:36:35.344Z,150.95
2023-04-16T06:37:35.337Z,148.57
2023-04-16T06:38:35.354Z,147.21
2023-04-16T06:39:35.353Z,150.73
2023-04-16T06:40:35.276Z,147.90
2023-04-16T06:41:35.290Z,150.83
2023-04-16T06:42:35.305Z,149.08
2023-04-16T06:43:35.327Z,147.53
2023-04-16T06:44:35.283Z,148.55
2023-04-16T06:45:35.290Z,148.55
2023-04-16T06:46:35.400Z,149.43
2023-04-16T06:47:35.431Z,146.63
2023-04-16T06:48:35.639Z,147.25
2023-04-16T06:49:35.419Z,149.04
2023-04-16T06:50:35.419Z,149.23
2023-04-16T06:51:35.456Z,148.38
2023-04-16T06:52:35.458Z,146.31
2023-04-16T06:53:35.547Z,146.16
2023-04-16T06:54:35.556Z,144.50
2023-04-16T06:55:35.587Z,151.26
2023-04-16T06:56:35.614Z,148.34
2023-04-16T06:57:37.367Z,145.87
2023-04-16T06:58:35.662Z,147.05
2023-04-16T06:59:35.693Z,149.86
2023-04-16T07:00:35.728Z,149.02
2023-04-16T07:01:35.737Z,146.96
2023-04-16T07:02:35.907Z,147.49
2023-04-16T07:03:35.904Z,150.32
2023-04-16T07:04:35.778Z,148.49
2023-04-16T07:05:35.832Z,150.33
2023-04-16T07:06:35.851Z,148.89
2023-04-16T07:07:35.875Z,143.85
2023-04-16T07:08:35.967Z,149.92
2023-04-16T07:09:35.953Z,148.51
2023-04-16T07:10:35.969Z,144.85
2023-04-16T07:11:35.973Z,149.06
2023-04-16T07:12:36.136Z,145.59
2023-04-16T07:13:36.100Z,148.50
2023-04-16T07:14:36.094Z,145.52
2023-04-16T07:15:36.103Z,146.96
2023-04-16T07:16:36.159Z,147.21
2023-04-16T07:17:36.197Z,144.79
2023-04-16T07:18:36.152Z,148.22
2023-04-16T07:19:36.239Z,145.10
2023-04-16T07:20:36.250Z,144.21
2023-04-16T07:21:36.299Z,145.92
2023-04-16T07:22:36.366Z,148.78
2023-04-16T07:23:36.312Z,146.69
2023-04-16T07:24:36.383Z,146.75
2023-04-16T07:25:36.392Z,145.34
2023-04-16T07:26:36.385Z,147.10
2023-04-16T07:27:36.432Z,142.91
2023-04-16T07:28:36.440Z,146.64
2023-04-16T07:29:36.511Z,146.12
2023-04-16T07:30:36.483Z,147.92
2023-04-16T07:31:36.539Z,147.46
2023-04-16T07:32:36.609Z,144.06
2023-04-16T07:33:36.588Z,143.30
2023-04-16T07:34:36.655Z,144.44
2023-04-16T07:35:36.596Z,147.74
2023-04-16T07:36:36.663Z,144.68
2023-04-16T07:37:36.716Z,144.28
2023-04-16T07:38:36.732Z,144.31
2023-04-16T07:39:36.723Z,145.10
2023-04-16T07:40:36.781Z,146.29
2023-04-16T07:41:36.787Z,145.33
2023-04-16T07:42:36.857Z,148.30
2023-04-16T07:43:36.848Z,145.11
2023-04-16T07:44:36.837Z,147.37
2023-04-16T07:45:36.932Z,143.36
2023-04-16T07:46:46.369Z,143.04
2023-04-16T07:47:37.909Z,143.22
2023-04-16T07:48:36.864Z,143.78
2023-04-16T07:49:36.897Z,144.58
2023-04-16T07:50:36.882Z,145.16
2023-04-16T07:51:36.866Z,145.78
2023-04-16T07:52:36.864Z,145.65
2023-04-16T07:53:36.873Z,144.21
2023-04-16T07:54:36.886Z,147.32
2023-04-16T07:55:36.830Z,147.68
2023-04-16T07:56:36.844Z,146.37
2023-04-16T07:57:36.838Z,145.64
2023-04-16T07:58:36.819Z,147.28
2023-04-16T07:59:36.821Z,143.70
2023-04-16T08:00:36.822Z,144.35
2023-04-16T08:01:36.836Z,145.98
2023-04-16T08:02:36.957Z,144.75
2023-04-16T08:03:37.053Z,144.12
2023-04-16T08:04:37.049Z,143.90
2023-04-16T08:05:36.896Z,143.03
2023-04-16T08:06:36.971Z,144.77
2023-04-16T08:07:36.979Z,142.33
2023-04-16T08:08:37.009Z,145.05
2023-04-16T08:09:37.015Z,140.64
2023-04-16T08:10:37.037Z,142.50
2023-04-16T08:11:37.062Z,142.83
2023-04-16T08:12:37.060Z,143.57
2023-04-16T08:13:37.126Z,140.35
2023-04-16T08:14:37.195Z,140.30
2023-04-16T08:15:37.159Z,144.72
2023-04-16T08:16:37.245Z,141.59
2023-04-16T08:17:37.279Z,144.07
2023-04-16T08:18:37.290Z,141.68
2023-04-16T08:19:37.389Z,140.59
2023-04-16T08:20:37.322Z,144.23
2023-04-16T08:21:37.379Z,143.56
2023-04-16T08:22:37.336Z,143.49
2023-04-16T08:23:37.387Z,143.46
2023-04-16T08:24:37.434Z,143.46
2023-04-16T08:25:37.442Z,140.97
2023-04-16T08:26:37.457Z,143.19
2023-04-16T08:27:37.520Z,141.19
2023-04-16T08:28:37.577Z,140.97
2023-04-16T08:29:37.541Z,139.22
2023-04-16T08:30:52.221Z,142.61
2023-04-16T08:31:37.940Z,143.08
2023-04-16T08:32:37.874Z,144.00
2023-04-16T08:33:37.872Z,144.27
2023-04-16T08:34:37.872Z,145.49
2023-04-16T08:35:37.887Z,146.17
2023-04-16T08:36:37.909Z,141.43
2023-04-16T08:37:37.952Z,145.25
2023-04-16T08:38:38.011Z,142.72
2023-04-16T08:39:38.022Z,142.58
2023-04-16T08:40:38.177Z,142.18
2023-04-16T08:41:38.093Z,139.60
2023-04-16T08:42:38.085Z,142.13
2023-04-16T08:43:38.173Z,141.31
2023-04-16T08:44:38.144Z,141.87
2023-04-16T08:45:38.286Z,140.38
2023-04-16T08:46:38.239Z,140.66
2023-04-16T08:47:38.291Z,140.46
2023-04-16T08:48:38.269Z,139.46
2023-04-16T08:49:38.382Z,141.43
2023-04-16T08:50:38.261Z,137.88
2023-04-16T08:51:38.332Z,138.87
2023-04-16T08:52:38.355Z,141.10
2023-04-16T08:53:38.356Z,138.41
2023-04-16T08:54:38.427Z,138.13
2023-04-16T08:55:38.357Z,139.45
2023-04-16T08:56:38.466Z,138.22
2023-04-16T08:57:38.486Z,137.00
2023-04-16T08:58:38.551Z,142.70
2023-04-16T08:59:38.525Z,141.38
2023-04-16T09:00:38.531Z,136.68
2023-04-16T09:01:38.626Z,140.53
2023-04-16T09:02:38.876Z,136.55
2023-04-16T09:03:38.799Z,138.63
2023-04-16T09:04:38.837Z,138.23
2023-04-16T09:05:38.704Z,138.85
2023-04-16T09:06:38.674Z,137.05
2023-04-16T09:07:38.726Z,136.64
2023-04-16T09:08:38.765Z,136.78
2023-04-16T09:09:38.816Z,135.79
2023-04-16T09:10:38.830Z,135.94
2023-04-16T09:11:38.858Z,135.11
2023-04-16T09:12:38.868Z,136.25
2023-04-16T09:13:38.959Z,135.13
2023-04-16T09:14:38.943Z,138.06
2023-04-16T09:15:38.909Z,138.58
2023-04-16T09:16:39.166Z,139.79
2023-04-16T09:17:38.982Z,137.23
2023-04-16T09:18:39.049Z,136.27
2023-04-16T09:19:39.065Z,139.14
2023-04-16T09:20:39.065Z,138.25
2023-04-16T09:21:39.126Z,136.61
2023-04-16T09:22:39.133Z,135.42
2023-04-16T09:23:39.165Z,138.65
2023-04-16T09:24:39.139Z,139.28
2023-04-16T09:25:39.293Z,138.11
2023-04-16T09:26:39.257Z,136.77
2023-04-16T09:27:39.272Z,139.26
2023-04-16T09:28:39.288Z,137.31
2023-04-16T09:29:39.326Z,136.24
2023-04-16T09:30:39.315Z,138.54
2023-04-16T09:31:39.451Z,135.26
2023-04-16T09:32:39.477Z,135.22
2023-04-16T09:33:39.382Z,137.20
2023-04-16T09:34:39.429Z,134.76
2023-04-16T09:35:39.444Z,135.28
2023-04-16T09:36:39.428Z,137.67
2023-04-16T09:37:39.483Z,134.55
2023-04-16T09:38:39.506Z,135.87
2023-04-16T09:39:39.556Z,137.01
2023-04-16T09:40:39.572Z,138.14
2023-04-16T09:41:39.564Z,135.10
2023-04-16T09:42:39.586Z,134.33
2023-04-16T09:43:39.632Z,137.06
2023-04-16T09:44:39.663Z,134.83
2023-04-16T09:45:39.676Z,135.94
2023-04-16T09:46:39.708Z,134.98
2023-04-16T09:47:39.786Z,138.69
2023-04-16T09:48:39.765Z,136.07
2023-04-16T09:49:39.796Z,132.79
2023-04-16T09:50:39.849Z,136.37
2023-04-16T09:51:39.856Z,137.53
2023-04-16T09:52:39.855Z,136.05
2023-04-16T09:53:39.924Z,134.24
2023-04-16T09:54:39.897Z,136.41
2023-04-16T09:55:39.941Z,134.03
2023-04-16T09:56:39.943Z,133.20
2023-04-16T09:57:40.000Z,132.86
2023-04-16T09:58:40.017Z,134.81
2023-04-16T09:59:40.030Z,132.97
2023-04-16T10:00:43.232Z,134.61
2023-04-16T10:01:40.120Z,138.17
2023-04-16T10:02:40.223Z,135.43
2023-04-16T10:03:40.347Z,135.03
2023-04-16T10:04:40.114Z,136.03
2023-04-16T10:05:40.013Z,132.75
2023-04-16T10:06:40.084Z,135.09
2023-04-16T10:07:40.056Z,134.45
2023-04-16T10:08:40.046Z,133.76
2023-04-16T10:09:40.017Z,136.15
2023-04-16T10:10:40.057Z,134.75
2023-04-16T10:11:39.983Z,133.02
2023-04-16T10:12:39.948Z,133.34
2023-04-16T10:13:39.945Z,132.66
2023-04-16T10:14:39.952Z,130.26
2023-04-16T10:15:39.980Z,129.16
2023-04-16T10:16:40.024Z,133.01
2023-04-16T10:17:40.034Z,132.13
2023-04-16T10:18:39.990Z,133.03
2023-04-16T10:19:39.900Z,134.01
2023-04-16T10:20:39.893Z,133.61
2023-04-16T10:21:39.957Z,132.94
2023-04-16T10:22:39.918Z,134.66
2023-04-16T10:23:39.996Z,130.92
2023-04-16T10:24:39.933Z,130.68
2023-04-16T10:25:39.879Z,131.52
2023-04-16T10:26:39.891Z,132.98
2023-04-16T10:27:39.891Z,134.29
2023-04-16T10:28:39.842Z,131.33
2023-04-16T10:29:39.866Z,133.85
2023-04-16T10:30:39.892Z,131.68
2023-04-16T10:31:39.868Z,133.74
2023-04-16T10:32:39.871Z,132.98
2023-04-16T10:33:39.827Z,132.50
2023-04-16T10:34:39.847Z,132.26
2023-04-16T10:35:40.749Z,132.94
2023-04-16T10:36:39.853Z,131.31
2023-04-16T10:37:39.811Z,129.77
2023-04-16T10:38:39.771Z,130.02
2023-04-16T10:39:39.798Z,132.74
2023-04-16T10:40:39.768Z,131.53
2023-04-16T10:41:39.779Z,131.55
2023-04-16T10:42:39.800Z,132.16
2023-04-16T10:43:39.738Z,130.82
2023-04-16T10:44:40.339Z,130.53
2023-04-16T10:45:39.801Z,133.58
2023-04-16T10:46:39.834Z,133.89
2023-04-16T10:47:39.769Z,133.75
2023-04-16T10:48:49.758Z,133.15
2023-04-16T10:49:40.773Z,133.19
2023-04-16T10:50:39.701Z,133.24
2023-04-16T10:51:39.698Z,133.17
2023-04-16T10:52:39.705Z,134.43
2023-04-16T10:53:39.711Z,131.89
2023-04-16T10:54:39.672Z,132.23
2023-04-16T10:55:39.683Z,130.39
2023-04-16T10:56:39.665Z,132.67
2023-04-16T10:57:39.697Z,132.83
2023-04-16T10:58:39.646Z,129.38
2023-04-16T10:59:39.644Z,132.48
2023-04-16T11:00:40.220Z,131.31
2023-04-16T11:01:39.707Z,131.89
2023-04-16T11:02:39.704Z,133.15
2023-04-16T11:03:39.709Z,131.28
2023-04-16T11:04:39.766Z,130.65
2023-04-16T11:05:39.588Z,132.13
2023-04-16T11:06:39.623Z,131.44
2023-04-16T11:07:39.623Z,131.84
2023-04-16T11:08:53.289Z,133.01
2023-04-16T11:09:40.667Z,133.23
2023-04-16T11:10:39.709Z,133.70
2023-04-16T11:11:39.680Z,130.90
2023-04-16T11:12:39.693Z,133.56
2023-04-16T11:13:39.600Z,133.20
2023-04-16T11:14:39.598Z,132.53
2023-04-16T11:15:39.693Z,130.33
2023-04-16T11:16:39.614Z,132.15
2023-04-16T11:17:39.665Z,130.59
2023-04-16T11:18:41.643Z,131.93
2023-04-16T11:19:40.594Z,132.16
2023-04-16T11:20:39.570Z,132.25
2023-04-16T11:21:39.607Z,131.95
2023-04-16T11:22:39.564Z,132.66
2023-04-16T11:23:39.562Z,131.12
2023-04-16T11:24:39.539Z,129.79
2023-04-16T11:25:39.573Z,130.55
2023-04-16T11:26:39.544Z,130.81
2023-04-16T11:27:39.565Z,129.65
2023-04-16T11:28:39.540Z,130.18
2023-04-16T11:29:39.553Z,130.82
2023-04-16T11:30:39.556Z,128.55
2023-04-16T11:31:39.534Z,128.32
2023-04-16T11:32:39.572Z,129.88
2023-04-16T11:33:39.485Z,130.56
2023-04-16T11:34:39.480Z,128.28
2023-04-16T11:35:39.553Z,131.49
2023-04-16T11:36:39.516Z,131.22
2023-04-16T11:37:39.559Z,128.62
2023-04-16T11:38:39.591Z,131.50
2023-04-16T11:39:39.635Z,128.80
2023-04-16T11:40:39.676Z,129.70
2023-04-16T11:41:39.654Z,130.40
2023-04-16T11:42:39.735Z,128.89
2023-04-16T11:43:39.743Z,130.98
2023-04-16T11:44:39.776Z,132.47
2023-04-16T11:45:39.787Z,131.42
2023-04-16T11:46:39.887Z,130.56
2023-04-16T11:47:39.842Z,128.66
2023-04-16T11:48:39.843Z,126.71
2023-04-16T11:49:39.879Z,128.41
2023-04-16T11:50:39.892Z,128.88
2023-04-16T11:51:39.895Z,129.91
2023-04-16T11:52:39.893Z,130.18
2023-04-16T11:53:39.919Z,128.51
2023-04-16T11:54:39.990Z,127.52
2023-04-16T11:55:39.954Z,125.33
2023-04-16T11:56:40.001Z,128.96
2023-04-16T11:57:40.048Z,128.15
2023-04-16T11:58:43.218Z,126.47
2023-04-16T12:00:02.473Z,130.06
2023-04-16T12:00:41.051Z,130.26
2023-04-16T12:01:40.814Z,130.49
2023-04-16T12:02:40.113Z,130.89
2023-04-16T12:03:40.506Z,131.37
2023-04-16T12:04:40.109Z,132.80
2023-04-16T12:05:40.035Z,131.24
2023-04-16T12:06:40.006Z,130.37
2023-04-16T12:07:39.995Z,128.63
2023-04-16T12:08:40.011Z,125.78
2023-04-16T12:09:41.143Z,125.87
2023-04-16T12:10:40.116Z,128.77
2023-04-16T12:11:39.965Z,128.16
2023-04-16T12:12:39.990Z,129.55
2023-04-16T12:13:40.217Z,128.60
2023-04-16T12:14:39.947Z,128.83
2023-04-16T12:15:39.931Z,130.08
2023-04-16T12:16:39.988Z,125.59
2023-04-16T12:17:39.950Z,128.42
2023-04-16T12:18:39.922Z,125.89
2023-04-16T12:19:39.880Z,129.69
2023-04-16T12:20:39.932Z,128.81
2023-04-16T12:21:39.977Z,126.68
2023-04-16T12:22:40.027Z,127.30
2023-04-16T12:23:39.998Z,129.83
2023-04-16T12:24:40.011Z,130.27
2023-04-16T12:25:40.061Z,127.40
2023-04-16T12:26:40.047Z,127.56
2023-04-16T12:27:40.082Z,125.28
2023-04-16T12:28:40.145Z,126.28